createdAt,value
2023-02-25T00:00:45.248Z,60.91
2023-02-25T00:01:57.868Z,60.75
2023-02-25T00:02:47.330Z,60.75
2023-02-25T00:03:45.290Z,60.59
2023-02-25T00:04:45.240Z,60.75
2023-02-25T00:05:45.218Z,60.91
2023-02-25T00:06:45.248Z,60.75
2023-02-25T00:07:45.210Z,60.75
2023-02-25T00:08:45.186Z,60.91
2023-02-25T00:09:45.175Z,61.23
2023-02-25T00:10:45.169Z,61.07
2023-02-25T00:11:45.171Z,61.55
2023-02-25T00:12:45.171Z,61.39
2023-02-25T00:13:45.129Z,62.04
2023-02-25T00:14:46.179Z,61.55
2023-02-25T00:15:45.144Z,61.87
2023-02-25T00:16:45.223Z,61.07
2023-02-25T00:17:45.108Z,61.87
2023-02-25T00:18:45.101Z,61.39
2023-02-25T00:19:45.099Z,61.23
2023-02-25T00:20:45.095Z,61.39
2023-02-25T00:21:45.086Z,61.39
2023-02-25T00:22:45.061Z,61.39
2023-02-25T00:23:45.058Z,61.39
2023-02-25T00:24:45.039Z,61.55
2023-02-25T00:25:45.031Z,61.23
2023-02-25T00:26:45.057Z,61.55
2023-02-25T00:27:45.014Z,61.39
2023-02-25T00:28:45.024Z,61.39
2023-02-25T00:29:44.998Z,61.55
2023-02-25T00:30:45.095Z,61.39
2023-02-25T00:31:45.242Z,61.07
2023-02-25T00:32:45.018Z,61.23
2023-02-25T00:33:44.966Z,61.23
2023-02-25T00:34:44.961Z,61.23
2023-02-25T00:35:44.950Z,61.39
2023-02-25T00:36:44.968Z,61.71
2023-02-25T00:37:44.932Z,61.71
2023-02-25T00:38:44.925Z,61.87
2023-02-25T00:39:44.976Z,62.04
2023-02-25T00:40:44.907Z,61.87
2023-02-25T00:41:44.898Z,61.07
2023-02-25T00:42:44.903Z,61.39
2023-02-25T00:43:44.881Z,60.91
2023-02-25T00:44:44.872Z,61.07
2023-02-25T00:45:44.868Z,61.55
2023-02-25T00:46:44.901Z,61.23
2023-02-25T00:47:44.931Z,60.59
2023-02-25T00:48:44.842Z,61.23
2023-02-25T00:49:44.831Z,61.23
2023-02-25T00:50:44.829Z,60.75
2023-02-25T00:51:44.810Z,61.07
2023-02-25T00:52:44.819Z,60.59
2023-02-25T00:53:44.796Z,59.78
2023-02-25T00:54:44.792Z,61.23
2023-02-25T00:55:44.783Z,60.59
2023-02-25T00:56:44.773Z,61.23
2023-02-25T00:57:44.776Z,61.71
2023-02-25T00:58:44.766Z,61.23
2023-02-25T00:59:44.747Z,60.75
2023-02-25T01:00:51.501Z,60.91
2023-02-25T01:01:46.773Z,61.07
2023-02-25T01:02:44.778Z,60.91
2023-02-25T01:03:44.706Z,60.75
2023-02-25T01:04:44.698Z,60.75
2023-02-25T01:05:44.701Z,61.23
2023-02-25T01:06:44.687Z,62.84
2023-02-25T01:07:44.681Z,60.26
2023-02-25T01:08:44.657Z,61.07
2023-02-25T01:09:44.656Z,60.91
2023-02-25T01:10:44.641Z,61.07
2023-02-25T01:11:44.633Z,61.39
2023-02-25T01:12:44.636Z,61.55
2023-02-25T01:13:44.685Z,60.91
2023-02-25T01:14:44.619Z,60.75
2023-02-25T01:15:44.747Z,61.71
2023-02-25T01:16:44.591Z,60.91
2023-02-25T01:17:44.597Z,60.59
2023-02-25T01:18:44.591Z,61.71
2023-02-25T01:19:44.563Z,62.36
2023-02-25T01:20:44.573Z,61.71
2023-02-25T01:21:44.557Z,61.23
2023-02-25T01:22:44.548Z,60.75
2023-02-25T01:23:44.532Z,61.23
2023-02-25T01:24:44.522Z,61.39
2023-02-25T01:25:44.524Z,61.07
2023-02-25T01:26:44.506Z,61.71
2023-02-25T01:27:44.517Z,62.52
2023-02-25T01:28:44.494Z,62.52
2023-02-25T01:29:44.476Z,61.55
2023-02-25T01:30:44.485Z,61.39
2023-02-25T01:31:44.688Z,62.04
2023-02-25T01:32:44.553Z,61.71
2023-02-25T01:33:44.440Z,62.36
2023-02-25T01:34:44.431Z,62.84
2023-02-25T01:35:44.430Z,62.36
2023-02-25T01:36:44.421Z,62.68
2023-02-25T01:37:44.424Z,62.20
2023-02-25T01:38:44.405Z,62.04
2023-02-25T01:39:44.401Z,62.52
2023-02-25T01:40:44.388Z,61.39
2023-02-25T01:41:44.377Z,61.39
2023-02-25T01:42:44.387Z,61.23
2023-02-25T01:43:44.360Z,62.52
2023-02-25T01:44:44.360Z,62.52
2023-02-25T01:45:44.347Z,61.39
2023-02-25T01:46:44.371Z,62.36
2023-02-25T01:47:44.338Z,62.20
2023-02-25T01:48:44.317Z,62.68
2023-02-25T01:49:44.306Z,61.71
2023-02-25T01:50:44.302Z,63.00
2023-02-25T01:51:44.297Z,61.71
2023-02-25T01:52:44.295Z,61.39
2023-02-25T01:53:44.275Z,61.55
2023-02-25T01:54:44.262Z,61.39
2023-02-25T01:55:44.257Z,61.71
2023-02-25T01:56:44.242Z,61.87
2023-02-25T01:57:44.250Z,62.36
2023-02-25T01:58:44.231Z,61.87
2023-02-25T01:59:44.220Z,61.39
2023-02-25T02:00:44.274Z,61.87
2023-02-25T02:01:44.204Z,61.55
2023-02-25T02:02:44.246Z,62.68
2023-02-25T02:03:44.203Z,61.55
2023-02-25T02:04:44.180Z,62.68
2023-02-25T02:05:44.174Z,61.87
2023-02-25T02:06:44.169Z,62.20
2023-02-25T02:07:44.166Z,62.04
2023-02-25T02:08:44.148Z,62.20
2023-02-25T02:09:44.137Z,62.52
2023-02-25T02:10:44.130Z,61.55
2023-02-25T02:11:44.122Z,62.36
2023-02-25T02:12:44.135Z,62.52
2023-02-25T02:13:44.127Z,62.20
2023-02-25T02:14:44.091Z,62.04
2023-02-25T02:15:44.090Z,61.87
2023-02-25T02:16:44.123Z,62.04
2023-02-25T02:17:44.079Z,61.87
2023-02-25T02:18:44.055Z,61.39
2023-02-25T02:19:44.046Z,62.20
2023-02-25T02:20:44.041Z,61.87
2023-02-25T02:21:44.029Z,62.20
2023-02-25T02:22:44.032Z,62.68
2023-02-25T02:23:44.013Z,62.36
2023-02-25T02:24:44.005Z,62.20
2023-02-25T02:25:43.999Z,62.36
2023-02-25T02:26:43.983Z,62.52
2023-02-25T02:27:43.993Z,62.52
2023-02-25T02:28:43.971Z,62.52
2023-02-25T02:29:43.959Z,62.36
2023-02-25T02:30:43.995Z,62.68
2023-02-25T02:31:44.052Z,62.52
2023-02-25T02:32:44.043Z,62.36
2023-02-25T02:33:43.930Z,62.52
2023-02-25T02:34:43.921Z,62.20
2023-02-25T02:35:43.911Z,62.36
2023-02-25T02:36:43.903Z,62.04
2023-02-25T02:37:43.906Z,63.00
2023-02-25T02:38:43.912Z,62.84
2023-02-25T02:39:43.891Z,62.52
2023-02-25T02:40:43.866Z,63.00
2023-02-25T02:41:43.864Z,62.36
2023-02-25T02:42:43.869Z,62.04
2023-02-25T02:43:43.843Z,62.20
2023-02-25T02:44:43.830Z,62.04
2023-02-25T02:45:43.870Z,62.68
2023-02-25T02:46:43.817Z,62.36
2023-02-25T02:47:43.829Z,62.20
2023-02-25T02:48:43.795Z,62.68
2023-02-25T02:49:43.782Z,62.36
2023-02-25T02:50:43.777Z,62.20
2023-02-25T02:51:43.767Z,62.68
2023-02-25T02:52:43.773Z,61.87
2023-02-25T02:53:43.750Z,62.84
2023-02-25T02:54:43.746Z,62.20
2023-02-25T02:55:43.746Z,62.36
2023-02-25T02:56:43.723Z,62.20
2023-02-25T02:57:43.717Z,62.68
2023-02-25T02:58:43.884Z,61.55
2023-02-25T02:59:43.699Z,62.04
2023-02-25T03:00:43.758Z,61.87
2023-02-25T03:01:43.681Z,61.39
2023-02-25T03:02:43.676Z,61.55
2023-02-25T03:03:43.757Z,61.39
2023-02-25T03:04:43.664Z,61.39
2023-02-25T03:05:43.666Z,61.39
2023-02-25T03:06:43.640Z,61.71
2023-02-25T03:07:43.634Z,61.55
2023-02-25T03:08:43.635Z,62.20
2023-02-25T03:09:43.620Z,61.55
2023-02-25T03:10:43.604Z,62.20
2023-02-25T03:11:43.590Z,62.84
2023-02-25T03:12:44.598Z,61.71
2023-02-25T03:13:43.591Z,61.87
2023-02-25T03:14:43.575Z,62.20
2023-02-25T03:15:43.564Z,61.39
2023-02-25T03:16:43.633Z,61.71
2023-02-25T03:17:43.550Z,61.39
2023-02-25T03:18:43.551Z,62.20
2023-02-25T03:19:43.529Z,61.71
2023-02-25T03:20:43.527Z,62.52
2023-02-25T03:21:43.517Z,62.68
2023-02-25T03:22:43.503Z,62.36
2023-02-25T03:23:43.514Z,62.20
2023-02-25T03:24:43.494Z,62.68
2023-02-25T03:25:43.484Z,61.71
2023-02-25T03:26:43.471Z,62.20
2023-02-25T03:27:43.468Z,61.87
2023-02-25T03:28:43.482Z,61.71
2023-02-25T03:29:43.456Z,62.20
2023-02-25T03:30:43.498Z,61.55
2023-02-25T03:31:43.594Z,61.71
2023-02-25T03:32:44.513Z,61.23
2023-02-25T03:33:43.429Z,60.75
2023-02-25T03:34:43.415Z,61.71
2023-02-25T03:35:43.417Z,62.68
2023-02-25T03:36:43.422Z,62.36
2023-02-25T03:37:43.397Z,62.52
2023-02-25T03:38:43.389Z,62.20
2023-02-25T03:39:43.369Z,61.55
2023-02-25T03:40:43.359Z,61.87
2023-02-25T03:41:43.356Z,62.20
2023-02-25T03:42:43.340Z,61.39
2023-02-25T03:43:43.348Z,61.87
2023-02-25T03:44:43.328Z,62.04
2023-02-25T03:45:43.394Z,61.23
2023-02-25T03:46:43.322Z,60.91
2023-02-25T03:47:43.303Z,61.39
2023-02-25T03:48:43.304Z,61.55
2023-02-25T03:49:43.285Z,61.07
2023-02-25T03:50:43.272Z,61.87
2023-02-25T03:51:43.269Z,61.71
2023-02-25T03:52:43.262Z,61.39
2023-02-25T03:53:43.259Z,61.55
2023-02-25T03:54:43.244Z,61.23
2023-02-25T03:55:43.230Z,60.75
2023-02-25T03:56:43.230Z,61.71
2023-02-25T03:57:43.216Z,61.07
2023-02-25T03:58:43.217Z,61.39
2023-02-25T03:59:43.195Z,61.87
2023-02-25T04:00:43.188Z,61.07
2023-02-25T04:01:43.175Z,61.23
2023-02-25T04:02:43.178Z,61.23
2023-02-25T04:03:43.173Z,60.91
2023-02-25T04:04:43.239Z,61.07
2023-02-25T04:05:43.144Z,62.36
2023-02-25T04:06:43.136Z,61.55
2023-02-25T04:07:43.122Z,60.75
2023-02-25T04:08:43.122Z,61.71
2023-02-25T04:09:43.101Z,60.91
2023-02-25T04:10:43.097Z,62.36
2023-02-25T04:11:43.098Z,62.20
2023-02-25T04:12:43.152Z,61.23
2023-02-25T04:13:43.088Z,62.68
2023-02-25T04:14:43.063Z,62.04
2023-02-25T04:15:43.076Z,62.20
2023-02-25T04:16:43.040Z,62.04
2023-02-25T04:17:43.031Z,61.55
2023-02-25T04:18:43.031Z,63.81
2023-02-25T04:19:43.016Z,60.91
2023-02-25T04:20:43.032Z,61.71
2023-02-25T04:21:42.999Z,62.20
2023-02-25T04:22:42.987Z,61.39
2023-02-25T04:23:43.006Z,61.71
2023-02-25T04:24:42.964Z,62.68
2023-02-25T04:25:42.958Z,62.20
2023-02-25T04:26:42.965Z,61.07
2023-02-25T04:27:42.950Z,61.55
2023-02-25T04:28:42.951Z,60.91
2023-02-25T04:29:42.923Z,60.59
2023-02-25T04:30:43.000Z,61.23
2023-02-25T04:31:43.003Z,61.55
2023-02-25T04:32:43.008Z,62.84
2023-02-25T04:33:42.908Z,62.20
2023-02-25T04:34:42.885Z,61.55
2023-02-25T04:35:42.881Z,61.39
2023-02-25T04:36:42.870Z,61.87
2023-02-25T04:37:42.865Z,61.07
2023-02-25T04:38:43.860Z,61.23
2023-02-25T04:39:42.847Z,61.39
2023-02-25T04:40:42.835Z,63.00
2023-02-25T04:41:42.826Z,62.36
2023-02-25T04:42:42.816Z,62.04
2023-02-25T04:43:42.865Z,62.36
2023-02-25T04:44:42.798Z,62.04
2023-02-25T04:45:42.787Z,63.65
2023-02-25T04:46:42.840Z,61.87
2023-02-25T04:47:42.770Z,62.04
2023-02-25T04:48:42.773Z,61.39
2023-02-25T04:49:42.755Z,63.00
2023-02-25T04:50:42.740Z,61.23
2023-02-25T04:51:42.730Z,61.07
2023-02-25T04:52:42.727Z,60.42
2023-02-25T04:53:42.727Z,61.07
2023-02-25T04:54:42.716Z,61.55
2023-02-25T04:55:42.719Z,61.23
2023-02-25T04:56:42.688Z,62.04
2023-02-25T04:57:42.775Z,62.36
2023-02-25T04:58:42.689Z,60.91
2023-02-25T04:59:42.675Z,62.36
2023-02-25T05:00:42.655Z,61.39
2023-02-25T05:01:42.713Z,61.39
2023-02-25T05:02:42.639Z,61.87
2023-02-25T05:03:42.644Z,61.07
2023-02-25T05:04:42.695Z,61.39
2023-02-25T05:05:42.617Z,63.65
2023-02-25T05:06:42.619Z,62.36
2023-02-25T05:07:42.597Z,61.87
2023-02-25T05:08:42.602Z,61.87
2023-02-25T05:09:42.579Z,62.04
2023-02-25T05:10:42.568Z,62.04
2023-02-25T05:11:42.563Z,61.07
2023-02-25T05:12:42.558Z,61.87
2023-02-25T05:13:42.561Z,62.04
2023-02-25T05:14:42.537Z,61.23
2023-02-25T05:15:42.536Z,61.39
2023-02-25T05:16:42.552Z,61.55
2023-02-25T05:17:42.510Z,61.87
2023-02-25T05:18:42.701Z,63.65
2023-02-25T05:19:42.491Z,61.55
2023-02-25T05:20:42.528Z,61.71
2023-02-25T05:21:42.483Z,61.87
2023-02-25T05:22:42.484Z,61.55
2023-02-25T05:23:42.470Z,61.71
2023-02-25T05:24:42.455Z,62.36
2023-02-25T05:26:14.350Z,62.36
2023-02-25T05:26:42.429Z,62.36
2023-02-25T05:27:42.427Z,62.52
2023-02-25T05:28:42.427Z,61.55
2023-02-25T05:29:42.430Z,62.68
2023-02-25T05:30:42.498Z,61.55
2023-02-25T05:31:42.598Z,63.00
2023-02-25T05:32:42.506Z,62.52
2023-02-25T05:33:42.386Z,62.20
2023-02-25T05:34:42.367Z,62.04
2023-02-25T05:35:42.356Z,62.68
2023-02-25T05:36:42.354Z,62.04
2023-02-25T05:37:42.335Z,63.00
2023-02-25T05:38:42.348Z,61.39
2023-02-25T05:39:42.323Z,62.04
2023-02-25T05:40:42.318Z,61.23
2023-02-25T05:41:42.302Z,62.04
2023-02-25T05:42:42.312Z,62.84
2023-02-25T05:43:42.309Z,63.16
2023-02-25T05:44:42.273Z,63.16
2023-02-25T05:45:42.274Z,62.36
2023-02-25T05:46:42.321Z,61.71
2023-02-25T05:47:42.276Z,61.55
2023-02-25T05:48:42.294Z,62.68
2023-02-25T05:49:42.239Z,62.04
2023-02-25T05:50:42.228Z,61.55
2023-02-25T05:51:42.220Z,60.91
2023-02-25T05:52:42.216Z,61.55
2023-02-25T05:53:42.227Z,61.55
2023-02-25T05:54:42.196Z,61.55
2023-02-25T05:55:42.203Z,62.68
2023-02-25T05:56:43.178Z,61.71
2023-02-25T05:57:42.169Z,61.39
2023-02-25T05:58:42.170Z,61.71
2023-02-25T05:59:42.149Z,62.20
2023-02-25T06:00:42.149Z,62.52
2023-02-25T06:01:42.207Z,62.52
2023-02-25T06:02:42.124Z,62.84
2023-02-25T06:03:42.129Z,61.87
2023-02-25T06:04:42.104Z,62.68
2023-02-25T06:05:42.098Z,62.20
2023-02-25T06:06:42.098Z,62.36
2023-02-25T06:07:42.089Z,62.20
2023-02-25T06:08:42.079Z,61.55
2023-02-25T06:09:42.062Z,61.87
2023-02-25T06:10:42.091Z,62.20
2023-02-25T06:11:42.072Z,62.20
2023-02-25T06:12:42.032Z,61.39
2023-02-25T06:13:42.034Z,62.68
2023-02-25T06:14:42.019Z,61.55
2023-02-25T06:15:42.007Z,61.55
2023-02-25T06:16:42.017Z,61.39
2023-02-25T06:17:41.997Z,63.49
2023-02-25T06:18:41.991Z,63.16
2023-02-25T06:19:41.976Z,63.33
2023-02-25T06:20:41.966Z,61.87
2023-02-25T06:21:41.954Z,62.04
2023-02-25T06:22:41.942Z,62.36
2023-02-25T06:23:41.949Z,62.68
2023-02-25T06:24:41.928Z,63.00
2023-02-25T06:25:41.921Z,62.20
2023-02-25T06:26:42.006Z,62.68
2023-02-25T06:27:41.906Z,62.36
2023-02-25T06:28:41.904Z,62.68
2023-02-25T06:29:42.023Z,63.00
2023-02-25T06:30:41.928Z,61.87
2023-02-25T06:31:42.004Z,62.68
2023-02-25T06:32:41.988Z,63.65
2023-02-25T06:33:41.849Z,62.52
2023-02-25T06:34:41.855Z,63.33
2023-02-25T06:35:41.828Z,63.33
2023-02-25T06:36:41.820Z,62.84
2023-02-25T06:37:41.814Z,62.04
2023-02-25T06:38:41.826Z,62.20
2023-02-25T06:39:41.808Z,62.36
2023-02-25T06:40:41.792Z,62.04
2023-02-25T06:41:41.788Z,62.68
2023-02-25T06:42:41.779Z,62.20
2023-02-25T06:43:41.761Z,61.87
2023-02-25T06:44:41.767Z,62.20
2023-02-25T06:45:41.794Z,62.84
2023-02-25T06:46:41.770Z,62.68
2023-02-25T06:47:41.728Z,62.20
2023-02-25T06:48:41.732Z,62.36
2023-02-25T06:49:41.719Z,61.55
2023-02-25T06:50:41.697Z,62.36
2023-02-25T06:51:41.706Z,62.04
2023-02-25T06:52:41.685Z,62.68
2023-02-25T06:53:41.691Z,62.04
2023-02-25T06:54:41.694Z,61.55
2023-02-25T06:55:41.673Z,62.68
2023-02-25T06:56:41.644Z,62.68
2023-02-25T06:57:41.634Z,61.55
2023-02-25T06:58:41.628Z,62.36
2023-02-25T06:59:41.629Z,62.68
2023-02-25T07:00:41.608Z,62.20
2023-02-25T07:01:41.669Z,61.87
2023-02-25T07:02:41.592Z,63.16
2023-02-25T07:03:41.588Z,62.36
2023-02-25T07:04:43.850Z,61.39
2023-02-25T07:05:42.561Z,62.20
2023-02-25T07:06:42.556Z,63.16
2023-02-25T07:07:41.546Z,62.36
2023-02-25T07:08:41.538Z,62.20
2023-02-25T07:09:41.538Z,63.00
2023-02-25T07:10:41.549Z,63.00
2023-02-25T07:11:41.547Z,62.36
2023-02-25T07:12:41.534Z,61.55
2023-02-25T07:13:41.495Z,62.52
2023-02-25T07:14:41.498Z,62.36
2023-02-25T07:15:41.503Z,62.20
2023-02-25T07:16:41.471Z,62.20
2023-02-25T07:17:41.464Z,61.39
2023-02-25T07:18:41.454Z,62.36
2023-02-25T07:19:41.456Z,62.84
2023-02-25T07:20:41.432Z,62.04
2023-02-25T07:21:41.422Z,62.20
2023-02-25T07:22:41.425Z,62.20
2023-02-25T07:23:41.410Z,62.52
2023-02-25T07:24:41.413Z,62.36
2023-02-25T07:25:41.395Z,62.20
2023-02-25T07:26:41.382Z,62.36
2023-02-25T07:27:43.580Z,62.36
2023-02-25T07:28:42.372Z,62.04
2023-02-25T07:29:41.359Z,61.87
2023-02-25T07:30:41.460Z,62.36
2023-02-25T07:31:41.584Z,62.68
2023-02-25T07:32:41.481Z,62.52
2023-02-25T07:33:41.316Z,62.04
2023-02-25T07:34:41.326Z,62.52
2023-02-25T07:35:41.311Z,62.04
2023-02-25T07:36:41.295Z,62.36
2023-02-25T07:37:41.288Z,62.36
2023-02-25T07:38:41.296Z,63.16
2023-02-25T07:39:41.294Z,64.29
2023-02-25T07:40:41.263Z,62.68
2023-02-25T07:41:41.278Z,64.45
2023-02-25T07:42:41.251Z,63.49
2023-02-25T07:43:41.236Z,63.00
2023-02-25T07:44:41.264Z,63.16
2023-02-25T07:45:41.224Z,63.16
2023-02-25T07:46:41.211Z,61.55
2023-02-25T07:47:42.217Z,63.65
2023-02-25T07:48:41.210Z,64.61
2023-02-25T07:49:41.204Z,66.71
2023-02-25T07:50:41.186Z,65.26
2023-02-25T07:51:41.175Z,63.65
2023-02-25T07:52:41.173Z,65.90
2023-02-25T07:53:41.179Z,63.97
2023-02-25T07:54:41.163Z,65.10
2023-02-25T07:55:41.140Z,65.26
2023-02-25T07:56:41.138Z,64.94
2023-02-25T07:57:41.124Z,63.00
2023-02-25T07:58:41.125Z,62.04
2023-02-25T07:59:41.120Z,64.94
2023-02-25T08:00:41.097Z,65.90
2023-02-25T08:01:41.090Z,63.33
2023-02-25T08:02:41.120Z,65.10
2023-02-25T08:03:41.073Z,63.00
2023-02-25T08:04:41.120Z,63.16
2023-02-25T08:05:41.058Z,63.65
2023-02-25T08:06:41.076Z,64.78
2023-02-25T08:07:41.039Z,64.94
2023-02-25T08:08:41.029Z,62.68
2023-02-25T08:09:41.065Z,63.00
2023-02-25T08:10:41.016Z,63.49
2023-02-25T08:11:41.021Z,63.81
2023-02-25T08:12:41.000Z,64.45
2023-02-25T08:13:40.989Z,64.61
2023-02-25T08:14:40.991Z,65.42
2023-02-25T08:15:41.043Z,64.13
2023-02-25T08:16:40.965Z,66.06
2023-02-25T08:17:40.954Z,63.00
2023-02-25T08:18:40.943Z,64.61
2023-02-25T08:19:40.944Z,65.26
2023-02-25T08:20:40.929Z,67.35
2023-02-25T08:21:40.911Z,64.29
2023-02-25T08:22:40.908Z,65.58
2023-02-25T08:23:40.897Z,63.49
2023-02-25T08:24:40.907Z,65.26
2023-02-25T08:25:40.890Z,64.94
2023-02-25T08:26:40.872Z,63.81
2023-02-25T08:27:40.874Z,63.65
2023-02-25T08:28:40.861Z,63.81
2023-02-25T08:29:40.866Z,64.94
2023-02-25T08:30:40.920Z,63.97
2023-02-25T08:31:41.061Z,63.33
2023-02-25T08:32:40.956Z,65.58
2023-02-25T08:33:40.828Z,63.16
2023-02-25T08:34:40.812Z,63.00
2023-02-25T08:35:40.793Z,64.61
2023-02-25T08:36:40.783Z,62.68
2023-02-25T08:37:40.789Z,62.84
2023-02-25T08:38:40.765Z,63.81
2023-02-25T08:39:40.771Z,64.13
2023-02-25T08:40:40.758Z,64.45
2023-02-25T08:41:40.742Z,63.65
2023-02-25T08:42:40.734Z,63.33
2023-02-25T08:43:40.728Z,63.97
2023-02-25T08:44:40.728Z,65.26
2023-02-25T08:45:40.708Z,64.61
2023-02-25T08:46:40.765Z,63.97
2023-02-25T08:47:40.693Z,64.45
2023-02-25T08:48:40.685Z,63.00
2023-02-25T08:49:40.696Z,63.16
2023-02-25T08:50:40.663Z,63.49
2023-02-25T08:51:40.655Z,64.45
2023-02-25T08:52:42.161Z,62.84
2023-02-25T08:53:41.638Z,62.68
2023-02-25T08:54:40.641Z,63.65
2023-02-25T08:55:40.620Z,62.36
2023-02-25T08:56:40.612Z,63.97
2023-02-25T08:57:40.599Z,62.68
2023-02-25T08:58:40.597Z,63.33
2023-02-25T08:59:40.600Z,63.00
2023-02-25T09:00:40.610Z,62.04
2023-02-25T09:01:40.566Z,62.84
2023-02-25T09:02:40.552Z,63.16
2023-02-25T09:03:40.546Z,62.68
2023-02-25T09:04:40.603Z,62.52
2023-02-25T09:05:40.540Z,62.52
2023-02-25T09:06:40.515Z,62.04
2023-02-25T09:07:40.511Z,62.68
2023-02-25T09:08:40.523Z,61.71
2023-02-25T09:09:40.508Z,61.71
2023-02-25T09:10:49.941Z,62.04
2023-02-25T09:11:42.490Z,61.55
2023-02-25T09:12:40.472Z,62.52
2023-02-25T09:13:40.461Z,62.04
2023-02-25T09:14:40.459Z,61.71
2023-02-25T09:15:40.442Z,62.36
2023-02-25T09:16:40.468Z,61.87
2023-02-25T09:17:40.424Z,62.68
2023-02-25T09:18:40.414Z,63.16
2023-02-25T09:19:40.422Z,62.36
2023-02-25T09:20:40.397Z,63.81
2023-02-25T09:21:40.428Z,63.97
2023-02-25T09:22:40.377Z,62.68
2023-02-25T09:23:40.373Z,64.61
2023-02-25T09:24:40.375Z,64.94
2023-02-25T09:25:40.349Z,62.84
2023-02-25T09:26:40.481Z,63.49
2023-02-25T09:27:40.335Z,63.16
2023-02-25T09:28:40.320Z,63.33
2023-02-25T09:29:40.342Z,64.45
2023-02-25T09:30:40.334Z,62.36
2023-02-25T09:31:40.492Z,63.65
2023-02-25T09:32:40.351Z,64.78
2023-02-25T09:33:40.282Z,63.00
2023-02-25T09:34:40.286Z,62.84
2023-02-25T09:35:40.270Z,64.29
2023-02-25T09:36:40.265Z,63.16
2023-02-25T09:37:40.258Z,66.39
2023-02-25T09:38:40.242Z,63.16
2023-02-25T09:39:40.277Z,63.97
2023-02-25T09:40:40.224Z,63.16
2023-02-25T09:41:40.214Z,63.49
2023-02-25T09:42:40.207Z,62.84
2023-02-25T09:43:40.219Z,63.00
2023-02-25T09:44:40.207Z,62.84
2023-02-25T09:45:40.195Z,63.97
2023-02-25T09:46:40.175Z,62.68
2023-02-25T09:47:40.221Z,64.78
2023-02-25T09:48:40.161Z,63.00
2023-02-25T09:49:40.159Z,63.49
2023-02-25T09:50:40.142Z,61.55
2023-02-25T09:51:40.132Z,61.87
2023-02-25T09:52:40.121Z,62.04
2023-02-25T09:53:40.113Z,63.65
2023-02-25T09:54:40.122Z,62.52
2023-02-25T09:55:40.096Z,63.33
2023-02-25T09:56:40.096Z,62.52
2023-02-25T09:57:40.077Z,63.33
2023-02-25T09:58:40.068Z,63.49
2023-02-25T09:59:40.065Z,62.84
2023-02-25T10:00:40.067Z,61.87
2023-02-25T10:01:40.051Z,62.84
2023-02-25T10:02:40.098Z,63.00
2023-02-25T10:03:40.031Z,62.68
2023-02-25T10:04:40.028Z,62.04
2023-02-25T10:05:41.029Z,63.16
2023-02-25T10:06:41.518Z,61.23
2023-02-25T10:07:40.003Z,61.71
2023-02-25T10:08:39.998Z,61.87
2023-02-25T10:09:40.006Z,62.68
2023-02-25T10:10:39.989Z,62.04
2023-02-25T10:11:39.973Z,61.71
2023-02-25T10:12:39.959Z,62.36
2023-02-25T10:13:39.961Z,62.04
2023-02-25T10:14:39.941Z,60.91
2023-02-25T10:15:39.953Z,62.52
2023-02-25T10:16:39.956Z,63.16
2023-02-25T10:17:39.910Z,62.20
2023-02-25T10:18:39.922Z,61.23
2023-02-25T10:19:39.898Z,60.75
2023-02-25T10:20:39.910Z,60.26
2023-02-25T10:21:39.875Z,60.91
2023-02-25T10:22:39.879Z,61.71
2023-02-25T10:23:39.860Z,62.04
2023-02-25T10:24:39.860Z,61.07
2023-02-25T10:25:39.852Z,60.91
2023-02-25T10:26:39.830Z,61.55
2023-02-25T10:27:39.823Z,62.36
2023-02-25T10:28:39.812Z,61.23
2023-02-25T10:29:39.806Z,60.75
2023-02-25T10:30:39.901Z,61.87
2023-02-25T10:31:39.940Z,60.91
2023-02-25T10:32:39.831Z,60.91
2023-02-25T10:33:39.765Z,61.39
2023-02-25T10:34:39.759Z,59.62
2023-02-25T10:35:39.759Z,59.30
2023-02-25T10:36:39.732Z,59.94
2023-02-25T10:37:39.728Z,60.91
2023-02-25T10:38:39.722Z,60.26
2023-02-25T10:39:39.708Z,60.10
2023-02-25T10:40:39.711Z,60.42
2023-02-25T10:41:39.693Z,60.26
2023-02-25T10:42:39.683Z,60.26
2023-02-25T10:43:39.677Z,59.94
2023-02-25T10:44:39.671Z,62.84
2023-02-25T10:45:39.683Z,62.04
2023-02-25T10:46:39.689Z,62.36
2023-02-25T10:47:39.659Z,63.65
2023-02-25T10:48:39.630Z,61.39
2023-02-25T10:49:39.623Z,60.26
2023-02-25T10:50:45.988Z,61.71
2023-02-25T10:51:41.618Z,62.20
2023-02-25T10:52:39.603Z,63.00
2023-02-25T10:53:39.587Z,62.84
2023-02-25T10:54:39.578Z,62.36
2023-02-25T10:55:39.585Z,62.52
2023-02-25T10:56:39.567Z,61.07
2023-02-25T10:57:39.562Z,60.59
2023-02-25T10:58:39.552Z,61.23
2023-02-25T10:59:39.566Z,60.75
2023-02-25T11:00:39.572Z,62.36
2023-02-25T11:01:39.569Z,62.36
2023-02-25T11:02:39.548Z,62.20
2023-02-25T11:03:39.502Z,61.87
2023-02-25T11:04:39.526Z,62.20
2023-02-25T11:05:39.495Z,61.39
2023-02-25T11:06:39.476Z,61.55
2023-02-25T11:07:39.475Z,62.68
2023-02-25T11:08:39.468Z,60.75
2023-02-25T11:09:39.456Z,60.59
2023-02-25T11:10:39.458Z,61.39
2023-02-25T11:11:39.445Z,60.75
2023-02-25T11:12:39.432Z,60.75
2023-02-25T11:13:39.422Z,60.42
2023-02-25T11:14:39.410Z,61.07
2023-02-25T11:15:45.618Z,61.87
2023-02-25T11:16:41.418Z,61.23
2023-02-25T11:17:39.392Z,61.39
2023-02-25T11:18:39.384Z,62.20
2023-02-25T11:19:39.374Z,61.39
2023-02-25T11:20:39.381Z,62.52
2023-02-25T11:21:39.357Z,62.04
2023-02-25T11:22:39.343Z,62.20
2023-02-25T11:23:39.335Z,62.20
2023-02-25T11:24:39.342Z,61.87
2023-02-25T11:25:39.329Z,62.04
2023-02-25T11:26:39.342Z,63.49
2023-02-25T11:27:39.579Z,60.91
2023-02-25T11:28:39.289Z,62.36
2023-02-25T11:29:39.288Z,62.84
2023-02-25T11:30:39.295Z,60.42
2023-02-25T11:31:39.389Z,62.04
2023-02-25T11:32:39.276Z,59.30
2023-02-25T11:33:39.248Z,61.87
2023-02-25T11:34:39.275Z,60.59
2023-02-25T11:35:39.255Z,60.59
2023-02-25T11:36:39.224Z,61.07
2023-02-25T11:37:40.922Z,59.78
2023-02-25T11:38:39.203Z,62.20
2023-02-25T11:39:39.201Z,61.55
2023-02-25T11:40:39.196Z,62.84
2023-02-25T11:41:39.178Z,61.39
2023-02-25T11:42:39.168Z,61.39
2023-02-25T11:43:39.155Z,61.39
2023-02-25T11:44:39.144Z,60.10
2023-02-25T11:45:39.149Z,63.00
2023-02-25T11:46:39.168Z,61.71
2023-02-25T11:47:39.120Z,60.10
2023-02-25T11:48:39.109Z,61.87
2023-02-25T11:49:40.212Z,60.75
2023-02-25T11:50:39.107Z,61.87
2023-02-25T11:51:39.082Z,60.42
2023-02-25T11:52:39.072Z,61.87
2023-02-25T11:53:39.071Z,61.07
2023-02-25T11:54:39.053Z,59.62
2023-02-25T11:55:39.059Z,62.04
2023-02-25T11:56:39.084Z,61.23
2023-02-25T11:57:39.048Z,59.94
2023-02-25T11:58:39.096Z,61.39
2023-02-25T11:59:39.011Z,60.59
2023-02-25T12:00:39.014Z,61.39
2023-02-25T12:01:39.015Z,61.07
2023-02-25T12:02:39.023Z,61.23
2023-02-25T12:03:39.007Z,61.39
2023-02-25T12:04:39.030Z,61.39
2023-02-25T12:05:39.009Z,61.07
2023-02-25T12:06:38.944Z,61.87
2023-02-25T12:07:38.934Z,61.87
2023-02-25T12:08:38.926Z,62.52
2023-02-25T12:09:38.918Z,61.39
2023-02-25T12:10:38.914Z,61.39
2023-02-25T12:11:38.910Z,61.71
2023-02-25T12:12:38.893Z,62.52
2023-02-25T12:13:38.892Z,60.75
2023-02-25T12:14:38.872Z,61.07
2023-02-25T12:15:38.870Z,61.87
2023-02-25T12:16:38.921Z,61.39
2023-02-25T12:17:38.845Z,61.71
2023-02-25T12:18:38.857Z,61.23
2023-02-25T12:19:38.854Z,61.07
2023-02-25T12:20:39.836Z,61.39
2023-02-25T12:21:38.815Z,61.39
2023-02-25T12:22:38.813Z,62.20
2023-02-25T12:23:38.796Z,63.16
2023-02-25T12:24:38.820Z,61.23
2023-02-25T12:25:38.796Z,61.23
2023-02-25T12:26:38.779Z,61.55
2023-02-25T12:27:38.780Z,61.87
2023-02-25T12:28:38.760Z,62.52
2023-02-25T12:29:38.750Z,62.52
2023-02-25T12:30:38.758Z,61.87
2023-02-25T12:31:38.900Z,62.04
2023-02-25T12:32:38.726Z,63.00
2023-02-25T12:33:38.715Z,62.84
2023-02-25T12:34:38.712Z,62.52
2023-02-25T12:35:38.696Z,61.55
2023-02-25T12:36:38.712Z,60.59
2023-02-25T12:37:38.679Z,62.68
2023-02-25T12:38:38.671Z,62.84
2023-02-25T12:39:38.664Z,62.36
2023-02-25T12:40:38.655Z,61.39
2023-02-25T12:41:38.658Z,62.36
2023-02-25T12:42:38.650Z,63.49
2023-02-25T12:43:38.626Z,61.71
2023-02-25T12:44:38.666Z,61.55
2023-02-25T12:45:38.652Z,61.39
2023-02-25T12:46:38.608Z,62.84
2023-02-25T12:47:38.589Z,62.52
2023-02-25T12:48:38.580Z,60.42
2023-02-25T12:49:38.575Z,61.23
2023-02-25T12:50:38.560Z,60.59
2023-02-25T12:51:38.574Z,60.91
2023-02-25T12:52:38.548Z,62.04